BAW659 EGLL-LGKF
Flight info
| Callsign | BAW659 |
|---|---|
| Flight time | N/A |
| Altitude | 37000 |
| Route | DET1J DET L6 DVR UL9 KONAN DCT KOK DCT SISGA DCT KOMOB DCT EDISA DCT PICWI DCT UTABA DCT BEMKI DCT ELMEM DCT DIRAB DCT RASUG DCT OKLAX DCT SIPAL DCT RODON DCT LIMJA DCT PITAS/N0445F330 UN732 KRK UT321 ASTUS ASTUS1N |
| Aircraft | A320/M-SDE3FGIJ1KRWXY/SB1 |
Departure
| Time | N/A |
|---|---|
| Airport | London Heathrow Airport (EGLL) |
Arrival
| Time | 2026-05-08 03:27 |
|---|---|
| Airport | Kefallinia Airport (LGKF) |
| Time | Latitude | Longitude | Altitude | Speed | Heading |
|---|---|---|---|---|---|
| 2026-05-08 02:58 | 40.63939 | 19.49607 | 37002 ft | 446 kts | 168° |
| 2026-05-08 02:59 | 40.61014 | 19.51006 | 37005 ft | 446 kts | 168° |
| 2026-05-08 02:59 | 40.55169 | 19.53791 | 37014 ft | 446 kts | 168° |
| 2026-05-08 03:00 | 40.49320 | 19.56564 | 37006 ft | 446 kts | 168° |
| 2026-05-08 03:00 | 40.43518 | 19.59311 | 37020 ft | 446 kts | 168° |
| 2026-05-08 03:01 | 40.37676 | 19.62075 | 37027 ft | 446 kts | 168° |
| 2026-05-08 03:01 | 40.31839 | 19.64838 | 37024 ft | 446 kts | 168° |
| 2026-05-08 03:02 | 40.26032 | 19.67577 | 37006 ft | 445 kts | 169° |
| 2026-05-08 03:02 | 40.20196 | 19.70316 | 37012 ft | 445 kts | 169° |
| 2026-05-08 03:03 | 40.14362 | 19.73055 | 37013 ft | 445 kts | 169° |
| 2026-05-08 03:03 | 40.08532 | 19.75786 | 37016 ft | 445 kts | 169° |
| 2026-05-08 03:04 | 40.02735 | 19.78498 | 37009 ft | 445 kts | 170° |
| 2026-05-08 03:04 | 39.96904 | 19.81215 | 37005 ft | 445 kts | 171° |
| 2026-05-08 03:05 | 39.91058 | 19.83946 | 36739 ft | 447 kts | 171° |
| 2026-05-08 03:05 | 39.88133 | 19.85330 | 36486 ft | 447 kts | 170° |
| 2026-05-08 03:05 | 39.85214 | 19.86767 | 36219 ft | 448 kts | 169° |
| 2026-05-08 03:05 | 39.82307 | 19.88240 | 35966 ft | 449 kts | 169° |
| 2026-05-08 03:06 | 39.79395 | 19.89732 | 35702 ft | 449 kts | 169° |
| 2026-05-08 03:06 | 39.76478 | 19.91228 | 35020 ft | 451 kts | 169° |
| 2026-05-08 03:06 | 39.73572 | 19.92703 | 34178 ft | 456 kts | 168° |
| 2026-05-08 03:06 | 39.70594 | 19.94198 | 33205 ft | 461 kts | 168° |
| 2026-05-08 03:07 | 39.67580 | 19.95703 | 32262 ft | 465 kts | 167° |
| 2026-05-08 03:07 | 39.64579 | 19.97202 | 31732 ft | 459 kts | 166° |
| 2026-05-08 03:07 | 39.61612 | 19.98689 | 31136 ft | 455 kts | 165° |
| 2026-05-08 03:07 | 39.58658 | 20.00167 | 30519 ft | 452 kts | 165° |
| 2026-05-08 03:08 | 39.55737 | 20.01624 | 29916 ft | 448 kts | 165° |
| 2026-05-08 03:08 | 39.52839 | 20.03070 | 29287 ft | 443 kts | 165° |
| 2026-05-08 03:08 | 39.50011 | 20.04485 | 28711 ft | 438 kts | 165° |
| 2026-05-08 03:08 | 39.47179 | 20.05904 | 28128 ft | 433 kts | 165° |
| 2026-05-08 03:09 | 39.44335 | 20.07014 | 27572 ft | 422 kts | 174° |
| 2026-05-08 03:09 | 39.41458 | 20.07472 | 27023 ft | 410 kts | 183° |
| 2026-05-08 03:09 | 39.38617 | 20.07624 | 26485 ft | 406 kts | 183° |
| 2026-05-08 03:09 | 39.35806 | 20.07782 | 25947 ft | 403 kts | 184° |
| 2026-05-08 03:10 | 39.33012 | 20.07943 | 25454 ft | 399 kts | 183° |
| 2026-05-08 03:10 | 39.30248 | 20.08104 | 24959 ft | 395 kts | 183° |
| 2026-05-08 03:10 | 39.27505 | 20.08261 | 24477 ft | 393 kts | 182° |
| 2026-05-08 03:10 | 39.24814 | 20.08413 | 24015 ft | 390 kts | 182° |
| 2026-05-08 03:11 | 39.22104 | 20.08569 | 23561 ft | 388 kts | 182° |
| 2026-05-08 03:11 | 39.19407 | 20.08726 | 23035 ft | 385 kts | 182° |
| 2026-05-08 03:11 | 39.16736 | 20.08884 | 22584 ft | 381 kts | 182° |
| 2026-05-08 03:11 | 39.14102 | 20.09041 | 22120 ft | 376 kts | 183° |
| 2026-05-08 03:12 | 39.11498 | 20.09195 | 21657 ft | 372 kts | 184° |
| 2026-05-08 03:12 | 39.08956 | 20.09343 | 21199 ft | 368 kts | 184° |
| 2026-05-08 03:12 | 39.06402 | 20.09487 | 20724 ft | 365 kts | 184° |
| 2026-05-08 03:12 | 39.03873 | 20.09632 | 20253 ft | 362 kts | 184° |
| 2026-05-08 03:13 | 39.01363 | 20.09778 | 19761 ft | 359 kts | 184° |
| 2026-05-08 03:13 | 38.98877 | 20.09922 | 19276 ft | 357 kts | 184° |
| 2026-05-08 03:13 | 38.96401 | 20.10062 | 18775 ft | 355 kts | 184° |
| 2026-05-08 03:13 | 38.93943 | 20.10200 | 18284 ft | 353 kts | 184° |
| 2026-05-08 03:14 | 38.91494 | 20.10338 | 17737 ft | 351 kts | 184° |
| 2026-05-08 03:14 | 38.89061 | 20.10477 | 17243 ft | 347 kts | 184° |
| 2026-05-08 03:14 | 38.86655 | 20.10615 | 16744 ft | 344 kts | 183° |
| 2026-05-08 03:14 | 38.84278 | 20.10753 | 16257 ft | 340 kts | 183° |
| 2026-05-08 03:15 | 38.81925 | 20.10891 | 15779 ft | 337 kts | 183° |
| 2026-05-08 03:15 | 38.79616 | 20.11026 | 15308 ft | 334 kts | 183° |
| 2026-05-08 03:15 | 38.77302 | 20.11160 | 14831 ft | 331 kts | 183° |
| 2026-05-08 03:15 | 38.75002 | 20.11291 | 14358 ft | 329 kts | 183° |
| 2026-05-08 03:16 | 38.72719 | 20.11421 | 13883 ft | 327 kts | 183° |
| 2026-05-08 03:16 | 38.70453 | 20.11549 | 13352 ft | 324 kts | 183° |
| 2026-05-08 03:16 | 38.68209 | 20.11676 | 12892 ft | 320 kts | 183° |
| 2026-05-08 03:16 | 38.65994 | 20.11805 | 12434 ft | 317 kts | 183° |
| 2026-05-08 03:17 | 38.63801 | 20.11933 | 11977 ft | 314 kts | 183° |
| 2026-05-08 03:17 | 38.61649 | 20.12057 | 11531 ft | 312 kts | 183° |
| 2026-05-08 03:17 | 38.59493 | 20.12179 | 11075 ft | 309 kts | 183° |
| 2026-05-08 03:17 | 38.57342 | 20.12300 | 10633 ft | 307 kts | 183° |
| 2026-05-08 03:18 | 38.55220 | 20.12419 | 10337 ft | 301 kts | 183° |
| 2026-05-08 03:18 | 38.53169 | 20.12542 | 10215 ft | 289 kts | 183° |
| 2026-05-08 03:18 | 38.51197 | 20.12662 | 10093 ft | 278 kts | 183° |
| 2026-05-08 03:18 | 38.49289 | 20.12774 | 9888 ft | 271 kts | 183° |
| 2026-05-08 03:19 | 38.47410 | 20.12878 | 9523 ft | 270 kts | 183° |
| 2026-05-08 03:19 | 38.45522 | 20.12978 | 9109 ft | 271 kts | 182° |
| 2026-05-08 03:19 | 38.43659 | 20.13078 | 8643 ft | 274 kts | 181° |
| 2026-05-08 03:19 | 38.41789 | 20.13520 | 8380 ft | 275 kts | 166° |
| 2026-05-08 03:20 | 38.40059 | 20.14625 | 8006 ft | 282 kts | 150° |
| 2026-05-08 03:20 | 38.38583 | 20.16321 | 7663 ft | 287 kts | 140° |
| 2026-05-08 03:20 | 38.37171 | 20.18119 | 7329 ft | 285 kts | 140° |
| 2026-05-08 03:20 | 38.35764 | 20.19892 | 7011 ft | 283 kts | 141° |
| 2026-05-08 03:21 | 38.34363 | 20.21647 | 6698 ft | 281 kts | 140° |
| 2026-05-08 03:21 | 38.32973 | 20.23385 | 6384 ft | 279 kts | 140° |
| 2026-05-08 03:21 | 38.31732 | 20.25247 | 6052 ft | 282 kts | 127° |
| 2026-05-08 03:21 | 38.30913 | 20.27559 | 5403 ft | 294 kts | 110° |
| 2026-05-08 03:22 | 38.30415 | 20.30084 | 4637 ft | 294 kts | 109° |
| 2026-05-08 03:22 | 38.29928 | 20.32604 | 3862 ft | 291 kts | 109° |
| 2026-05-08 03:22 | 38.29194 | 20.34890 | 3496 ft | 266 kts | 129° |
| 2026-05-08 03:22 | 38.27969 | 20.36458 | 3354 ft | 237 kts | 149° |
| 2026-05-08 03:23 | 38.26657 | 20.37572 | 3247 ft | 216 kts | 150° |
| 2026-05-08 03:23 | 38.25464 | 20.38581 | 3150 ft | 196 kts | 150° |
| 2026-05-08 03:23 | 38.24353 | 20.39519 | 2930 ft | 191 kts | 149° |
| 2026-05-08 03:23 | 38.23271 | 20.40428 | 2673 ft | 180 kts | 149° |
| 2026-05-08 03:24 | 38.22269 | 20.41267 | 2455 ft | 165 kts | 148° |
| 2026-05-08 03:24 | 38.21362 | 20.42030 | 2231 ft | 145 kts | 148° |
| 2026-05-08 03:24 | 38.20556 | 20.42707 | 2029 ft | 134 kts | 147° |
| 2026-05-08 03:24 | 38.19790 | 20.43348 | 1820 ft | 130 kts | 147° |
| 2026-05-08 03:25 | 38.19034 | 20.43979 | 1619 ft | 130 kts | 146° |
| 2026-05-08 03:25 | 38.18283 | 20.44606 | 1422 ft | 129 kts | 147° |
| 2026-05-08 03:25 | 38.17531 | 20.45232 | 1226 ft | 130 kts | 145° |
| 2026-05-08 03:25 | 38.16786 | 20.45853 | 1035 ft | 129 kts | 145° |
| 2026-05-08 03:26 | 38.16049 | 20.46467 | 840 ft | 125 kts | 144° |
| 2026-05-08 03:26 | 38.15340 | 20.47058 | 658 ft | 119 kts | 142° |
| 2026-05-08 03:26 | 38.14634 | 20.47650 | 473 ft | 125 kts | 142° |
| 2026-05-08 03:26 | 38.13920 | 20.48270 | 332 ft | 121 kts | 137° |
| 2026-05-08 03:27 | 38.13254 | 20.48958 | 173 ft | 128 kts | 137° |
| 2026-05-08 03:27 | 38.12529 | 20.49606 | 63 ft | 118 kts | 142° |
| 2026-05-08 03:27 | 38.11932 | 20.50112 | 53 ft | 85 kts | 146° |
| 2026-05-08 03:27 | 38.11731 | 20.50285 | 58 ft | 12 kts | 142° |
| 2026-05-08 03:28 | 38.11739 | 20.50327 | 58 ft | 3 kts | 26° |
| 2026-05-08 03:28 | 38.11743 | 20.50330 | 59 ft | 0 kts | 26° |
| 2026-05-08 03:28 | 38.11754 | 20.50337 | 53 ft | 4 kts | 26° |
| 2026-05-08 03:28 | 38.11787 | 20.50357 | 58 ft | 7 kts | 21° |
| 2026-05-08 03:29 | 38.11843 | 20.50352 | 57 ft | 10 kts | 351° |
| 2026-05-08 03:29 | 38.11879 | 20.50396 | 60 ft | 9 kts | 125° |
| 2026-05-08 03:29 | 38.11827 | 20.50445 | 56 ft | 9 kts | 178° |
| 2026-05-08 03:29 | 38.11817 | 20.50425 | 56 ft | 2 kts | 258° |
| 2026-05-08 03:30 | 38.11816 | 20.50420 | 56 ft | 0 kts | 258° |